Time;durP1;ratioP1;P1;durP2;ratioP2;P2;SDS_P1;SDS_P2;PMS_P1;PMS_P2;Temp;Humidity;BMP_temperature;BMP_pressure;BME280_temperature;BME280_humidity;BME280_pressure;Samples;Min_cycle;Max_cycle;Signal;HPM_P1;HPM_P2
2022/10/27 00:01:02;;;;;;;16.15;6.78;;;18.90;96.70;;;;;;4926466;29;20059;-71
2022/10/27 00:03:30;;;;;;;14.25;6.65;;;18.90;96.70;;;;;;4924852;29;20131;-71
2022/10/27 00:06:03;;;;;;;15.38;6.40;;;18.90;96.70;;;;;;4942942;29;20051;-71
2022/10/27 00:08:33;;;;;;;18.95;6.78;;;19.00;96.70;;;;;;4925802;29;20130;-71
2022/10/27 00:11:04;;;;;;;16.02;7.47;;;19.00;96.70;;;;;;4930339;29;20043;-71
2022/10/27 00:13:32;;;;;;;14.32;6.75;;;19.00;96.70;;;;;;4934384;28;20098;-71
2022/10/27 00:16:01;;;;;;;16.45;7.03;;;19.00;96.70;;;;;;4926371;29;20638;-71
2022/10/27 00:18:29;;;;;;;15.55;6.57;;;19.00;96.70;;;;;;4924715;29;20681;-71
2022/10/27 00:20:59;;;;;;;15.27;7.95;;;18.90;96.70;;;;;;4927294;29;20040;-71
2022/10/27 00:23:28;;;;;;;23.77;7.13;;;19.00;96.70;;;;;;4925344;29;20043;-72
2022/10/27 00:25:58;;;;;;;15.75;7.65;;;19.00;96.70;;;;;;4910701;29;20047;-71
2022/10/27 00:28:27;;;;;;;16.42;7.63;;;19.00;96.70;;;;;;4925302;29;20039;-71
2022/10/27 00:31:00;;;;;;;19.40;7.55;;;19.00;96.70;;;;;;4925683;29;20052;-71
2022/10/27 00:33:29;;;;;;;21.83;7.93;;;19.00;96.70;;;;;;4924570;29;20048;-71
2022/10/27 00:36:01;;;;;;;23.65;8.82;;;19.00;96.70;;;;;;4925113;29;20054;-71
2022/10/27 00:38:29;;;;;;;18.80;7.47;;;19.00;96.70;;;;;;4929869;29;20127;-71
2022/10/27 00:40:59;;;;;;;21.63;8.82;;;18.90;96.70;;;;;;4941303;29;20055;-71
2022/10/27 00:43:29;;;;;;;31.70;8.95;;;18.90;96.70;;;;;;4934317;28;20139;-71
2022/10/27 00:46:01;;;;;;;31.02;9.95;;;18.80;96.70;;;;;;4927090;29;20086;-73
2022/10/27 00:48:31;;;;;;;29.13;9.70;;;18.80;96.70;;;;;;4928538;28;20051;-71
2022/10/27 00:51:01;;;;;;;23.88;9.88;;;18.90;96.70;;;;;;4912652;29;20056;-71
2022/10/27 00:53:30;;;;;;;23.55;10.32;;;18.80;96.70;;;;;;4927944;29;20051;-71
2022/10/27 00:56:00;;;;;;;27.60;10.77;;;18.80;96.70;;;;;;4926853;29;20179;-70
2022/10/27 00:58:28;;;;;;;23.63;10.35;;;18.80;96.70;;;;;;4925558;29;20134;-71
2022/10/27 01:00:57;;;;;;;25.48;10.52;;;18.80;96.70;;;;;;4929472;29;20467;-71
2022/10/27 01:03:25;;;;;;;24.80;10.43;;;18.80;96.70;;;;;;4928130;29;20593;-71
2022/10/27 01:05:56;;;;;;;30.92;11.18;;;18.70;96.70;;;;;;4935390;29;20051;-72
2022/10/27 01:08:24;;;;;;;24.13;10.80;;;18.70;96.70;;;;;;4928621;29;20047;-71
2022/10/27 01:10:52;;;;;;;27.63;11.05;;;18.60;96.70;;;;;;4927739;29;20075;-71
2022/10/27 01:13:23;;;;;;;28.73;10.85;;;18.70;96.70;;;;;;4930341;29;20111;-71
2022/10/27 01:16:04;;;;;;;30.23;10.93;;;18.70;96.70;;;;;;4929022;29;20553;-71
2022/10/27 01:18:41;;;;;;;26.98;10.63;;;18.60;96.70;;;;;;4936473;29;20051;-71
2022/10/27 01:21:39;;;;;;;;;;;18.70;96.70;;;;;;4964079;28;20084;-72
2022/10/27 01:24:39;;;;;;;20.10;7.60;;;18.80;96.70;;;;;;4873532;29;20035;-71
2022/10/27 01:27:18;;;;;;;27.67;9.65;;;18.70;96.70;;;;;;4942249;28;20051;-71
2022/10/27 01:30:06;;;;;;;24.77;10.35;;;18.60;96.70;;;;;;4934958;29;20044;-71
2022/10/27 01:32:44;;;;;;;21.52;9.93;;;18.60;96.70;;;;;;4912058;29;20059;-71
2022/10/27 01:35:24;;;;;;;24.75;11.02;;;18.50;96.70;;;;;;4928879;29;20197;-72
2022/10/27 01:38:00;;;;;;;18.70;9.93;;;18.50;96.70;;;;;;4926055;29;20056;-72
2022/10/27 01:40:32;;;;;;;22.95;10.13;;;18.60;96.70;;;;;;4955241;28;20071;-72
2022/10/27 01:43:05;;;;;;;24.50;10.63;;;18.60;96.70;;;;;;4932498;28;20517;-71
2022/10/27 01:45:36;;;;;;;19.77;10.45;;;18.60;96.70;;;;;;4928302;29;20138;-71
2022/10/27 01:48:07;;;;;;;18.58;10.32;;;18.60;96.70;;;;;;4929681;29;20054;-71
2022/10/27 01:50:38;;;;;;;23.63;10.50;;;18.60;96.70;;;;;;4928716;29;20047;-72
2022/10/27 01:53:27;;;;;;;17.75;9.52;;;18.60;96.70;;;;;;4926694;29;20043;-74
2022/10/27 01:56:11;;;;;;;22.65;9.93;;;18.60;96.70;;;;;;4927318;29;20040;-71
2022/10/27 01:59:08;;;;;;;21.95;10.48;;;18.60;96.70;;;;;;4921187;29;20047;-71
2022/10/27 02:01:48;;;;;;;20.17;9.98;;;18.60;96.70;;;;;;4925708;29;20055;-72
2022/10/27 02:04:25;;;;;;;16.83;9.82;;;18.50;96.70;;;;;;4947298;28;20075;-72
2022/10/27 02:06:59;;;;;;;16.10;9.55;;;18.50;96.70;;;;;;4926807;29;20066;-72
2022/10/27 02:09:34;;;;;;;11.32;7.13;;;18.40;96.70;;;;;;4930572;29;20071;-71
2022/10/27 02:12:08;;;;;;;13.25;7.95;;;18.30;96.70;;;;;;4937700;29;20055;-72
2022/10/27 02:14:37;;;;;;;13.68;7.47;;;18.30;96.70;;;;;;4928259;29;20138;-72
2022/10/27 02:17:09;;;;;;;11.65;7.40;;;18.30;96.70;;;;;;4928862;29;20071;-71
2022/10/27 02:19:41;;;;;;;10.10;6.57;;;18.30;96.70;;;;;;4927779;29;20051;-72
2022/10/27 02:22:11;;;;;;;15.27;6.88;;;18.40;96.70;;;;;;4935240;29;20620;-72
2022/10/27 02:24:38;;;;;;;13.57;6.38;;;18.40;96.70;;;;;;4910594;29;20051;-71
2022/10/27 02:27:13;;;;;;;9.77;6.00;;;18.30;96.70;;;;;;4926744;29;20048;-71
2022/10/27 02:29:44;;;;;;;10.70;5.80;;;18.20;96.70;;;;;;4928219;29;20483;-72
2022/10/27 02:32:14;;;;;;;9.98;5.97;;;18.20;96.70;;;;;;4930172;29;20119;-72
2022/10/27 02:34:47;;;;;;;10.50;6.53;;;18.20;96.70;;;;;;4931457;29;20039;-72
2022/10/27 02:37:18;;;;;;;10.52;6.13;;;18.20;96.70;;;;;;4929560;29;20166;-72
2022/10/27 02:39:46;;;;;;;9.52;5.68;;;18.10;96.70;;;;;;4936541;28;20053;-72
2022/10/27 02:42:14;;;;;;;7.90;5.40;;;18.20;96.70;;;;;;4940003;29;21731;-72
2022/10/27 02:44:42;;;;;;;11.63;5.82;;;18.20;96.70;;;;;;4962311;28;20057;-72
2022/10/27 02:47:10;;;;;;;10.18;5.93;;;18.20;96.70;;;;;;4938275;28;20039;-71
2022/10/27 02:49:38;;;;;;;10.40;5.90;;;18.20;96.70;;;;;;4930118;28;20134;-72
2022/10/27 02:52:07;;;;;;;12.10;5.80;;;18.20;96.70;;;;;;4928188;29;20643;-71
2022/10/27 02:54:35;;;;;;;10.90;5.47;;;18.20;96.70;;;;;;4929932;29;20051;-72
2022/10/27 02:57:03;;;;;;;12.05;5.65;;;18.20;96.70;;;;;;4946026;28;20053;-71
2022/10/27 02:59:31;;;;;;;10.85;5.82;;;18.20;96.70;;;;;;4938777;28;20604;-71
2022/10/27 03:01:59;;;;;;;14.23;6.28;;;18.10;96.70;;;;;;4947728;28;20494;-72
2022/10/27 03:04:27;;;;;;;17.48;6.88;;;18.10;96.70;;;;;;4933309;28;20154;-71
2022/10/27 03:06:58;;;;;;;12.05;6.97;;;18.10;96.70;;;;;;4928578;29;20122;-72
2022/10/27 03:09:29;;;;;;;13.48;7.20;;;18.10;96.70;;;;;;4942776;29;20055;-72
2022/10/27 03:11:57;;;;;;;14.23;7.50;;;18.00;96.70;;;;;;4934714;28;20493;-72
2022/10/27 03:14:24;;;;;;;19.35;8.02;;;18.00;96.70;;;;;;4963775;28;20453;-71
2022/10/27 03:16:52;;;;;;;16.85;7.82;;;17.90;96.70;;;;;;4917382;28;20047;-71
2022/10/27 03:19:20;;;;;;;21.38;8.48;;;17.90;96.70;;;;;;4940398;28;20119;-72
2022/10/27 03:21:48;;;;;;;19.35;7.40;;;17.90;96.70;;;;;;4954950;28;20054;-72
2022/10/27 03:24:16;;;;;;;28.48;9.43;;;18.00;96.70;;;;;;4951444;28;20085;-71
2022/10/27 03:26:45;;;;;;;22.42;8.93;;;18.00;96.70;;;;;;4945884;28;20047;-72
2022/10/27 03:29:13;;;;;;;23.02;9.48;;;17.90;96.70;;;;;;4953501;28;20047;-71
2022/10/27 03:31:41;;;;;;;20.67;8.65;;;17.90;96.70;;;;;;4950603;28;20054;-71
2022/10/27 03:34:09;;;;;;;23.67;9.05;;;17.80;96.70;;;;;;4928662;28;20071;-71
2022/10/27 03:36:37;;;;;;;20.00;7.65;;;17.80;96.70;;;;;;4945367;28;20102;-71
2022/10/27 03:39:04;;;;;;;18.25;7.47;;;17.90;96.70;;;;;;4932262;28;20588;-71
2022/10/27 03:41:32;;;;;;;11.38;6.50;;;17.90;96.70;;;;;;4946196;28;20061;-71
2022/10/27 03:44:01;;;;;;;15.20;6.72;;;17.90;96.70;;;;;;4930952;29;20440;-74
2022/10/27 03:46:29;;;;;;;16.60;7.55;;;17.90;96.70;;;;;;4953180;28;20130;-72
2022/10/27 03:48:56;;;;;;;14.27;7.38;;;17.90;96.70;;;;;;4963078;28;20070;-72
2022/10/27 03:51:24;;;;;;;17.42;7.47;;;17.90;96.70;;;;;;4936603;29;20527;-72
2022/10/27 03:53:52;;;;;;;22.13;8.20;;;17.90;96.70;;;;;;4970240;28;20146;-72
2022/10/27 03:56:19;;;;;;;16.98;7.53;;;17.80;96.70;;;;;;4944945;28;20537;-72
2022/10/27 03:58:47;;;;;;;18.08;7.45;;;17.90;96.70;;;;;;4920231;28;20058;-70
2022/10/27 04:01:17;;;;;;;18.90;7.85;;;17.90;96.70;;;;;;4933476;28;20058;-72
2022/10/27 04:03:47;;;;;;;15.73;7.82;;;17.90;96.70;;;;;;4946848;28;20053;-71
2022/10/27 04:06:15;;;;;;;13.88;7.07;;;17.90;96.70;;;;;;4940104;28;20525;-71
2022/10/27 04:08:42;;;;;;;15.98;7.78;;;17.90;96.70;;;;;;4936264;28;20043;-74
2022/10/27 04:11:11;;;;;;;21.08;7.93;;;18.00;96.70;;;;;;4928943;29;20515;-73
2022/10/27 04:13:40;;;;;;;17.48;9.23;;;18.00;96.70;;;;;;4953702;28;20048;-72
2022/10/27 04:16:08;;;;;;;22.02;7.78;;;18.00;96.70;;;;;;4923499;28;20039;-72
2022/10/27 04:18:37;;;;;;;22.55;7.78;;;18.00;96.70;;;;;;4950225;28;20043;-72
2022/10/27 04:21:05;;;;;;;19.92;7.93;;;17.90;96.70;;;;;;4945882;28;20531;-72
2022/10/27 04:23:33;;;;;;;26.58;8.52;;;18.00;96.70;;;;;;4945254;28;20516;-72
2022/10/27 04:26:01;;;;;;;28.63;8.43;;;18.00;96.70;;;;;;4950517;28;20402;-72
2022/10/27 04:28:28;;;;;;;21.13;8.15;;;18.00;96.70;;;;;;4950236;28;20047;-72
2022/10/27 04:30:56;;;;;;;24.15;9.05;;;18.00;96.70;;;;;;4981586;28;20101;-72
2022/10/27 04:33:24;;;;;;;22.92;8.73;;;18.00;96.70;;;;;;4940959;28;20051;-72
2022/10/27 04:35:57;;;;;;;19.02;8.43;;;18.00;96.70;;;;;;4949837;28;20130;-72
2022/10/27 04:38:25;;;;;;;21.02;9.45;;;17.90;96.70;;;;;;4930422;29;20055;-72
2022/10/27 04:40:52;;;;;;;18.80;8.52;;;18.00;96.70;;;;;;4961033;28;20583;-72
2022/10/27 04:43:20;;;;;;;15.57;8.18;;;17.90;96.70;;;;;;4970798;28;20165;-72
2022/10/27 04:45:48;;;;;;;14.77;8.27;;;17.80;96.70;;;;;;4964837;28;20133;-72
2022/10/27 04:48:16;;;;;;;14.10;7.70;;;17.80;96.70;;;;;;4952454;28;20047;-72
2022/10/27 04:50:43;;;;;;;13.93;7.88;;;17.80;96.70;;;;;;4949532;28;20099;-72
2022/10/27 04:53:13;;;;;;;13.85;8.15;;;17.70;96.70;;;;;;4930862;29;20601;-72
2022/10/27 04:55:41;;;;;;;15.07;8.30;;;17.80;96.70;;;;;;4967094;28;20102;-72
2022/10/27 04:58:09;;;;;;;16.30;8.38;;;17.90;96.70;;;;;;4935307;28;20046;-72
2022/10/27 05:00:38;;;;;;;22.48;8.43;;;17.90;96.70;;;;;;4963011;28;20382;-72
2022/10/27 05:03:08;;;;;;;18.95;8.60;;;17.90;96.70;;;;;;4920576;29;20453;-72
2022/10/27 05:05:36;;;;;;;16.85;8.02;;;17.80;96.70;;;;;;4940155;28;20055;-72
2022/10/27 05:08:04;;;;;;;16.73;8.15;;;17.70;96.70;;;;;;4957842;28;20397;-72
2022/10/27 05:10:34;;;;;;;15.88;7.65;;;17.80;96.70;;;;;;4930728;28;20482;-73
2022/10/27 05:13:01;;;;;;;20.70;8.15;;;17.70;96.70;;;;;;4951574;28;20145;-72
2022/10/27 05:15:30;;;;;;;13.10;7.72;;;17.60;96.70;;;;;;4946379;28;20607;-71
2022/10/27 05:17:58;;;;;;;14.45;7.90;;;17.50;96.70;;;;;;4963199;28;20046;-72
2022/10/27 05:20:25;;;;;;;13.45;7.30;;;17.50;96.70;;;;;;4945925;29;20039;-72
2022/10/27 05:22:53;;;;;;;15.98;7.82;;;17.50;96.70;;;;;;4951220;28;20074;-72
2022/10/27 05:25:21;;;;;;;12.20;6.80;;;17.50;96.70;;;;;;4962928;28;20047;-72
2022/10/27 05:27:50;;;;;;;12.65;7.15;;;17.40;96.70;;;;;;4922750;28;20050;-72
2022/10/27 05:30:18;;;;;;;10.65;6.97;;;17.40;96.70;;;;;;4947737;28;20550;-72
2022/10/27 05:32:46;;;;;;;10.77;7.10;;;17.40;96.70;;;;;;4948170;28;20051;-72
2022/10/27 05:35:14;;;;;;;15.15;7.10;;;17.50;96.70;;;;;;4929910;29;20047;-72
2022/10/27 05:37:45;;;;;;;10.15;6.30;;;17.50;96.70;;;;;;4948617;28;20623;-72
2022/10/27 05:40:14;;;;;;;10.90;7.40;;;17.50;96.70;;;;;;4931914;28;20122;-72
2022/10/27 05:42:51;;;;;;;9.02;6.53;;;17.50;96.70;;;;;;4955917;28;20050;-72
2022/10/27 05:45:21;;;;;;;11.73;7.30;;;17.50;96.70;;;;;;4930916;29;20051;-72
2022/10/27 05:47:55;;;;;;;14.98;7.68;;;17.50;96.70;;;;;;4948282;28;20584;-72
2022/10/27 05:50:22;;;;;;;12.43;7.90;;;17.60;96.70;;;;;;4923816;28;20480;-73
2022/10/27 05:52:50;;;;;;;10.35;7.15;;;17.60;96.70;;;;;;4947527;28;20047;-73
2022/10/27 05:55:18;;;;;;;14.43;8.52;;;17.50;96.70;;;;;;4929495;29;20528;-73
2022/10/27 05:57:54;;;;;;;20.55;10.23;;;17.50;96.70;;;;;;4930494;29;20142;-73
2022/10/27 06:00:23;;;;;;;20.30;9.80;;;17.40;96.70;;;;;;4935997;28;20052;-71
2022/10/27 06:02:54;;;;;;;32.95;13.20;;;17.50;96.70;;;;;;4929773;28;20110;-72
2022/10/27 06:05:22;;;;;;;31.58;12.82;;;17.50;96.70;;;;;;4928695;29;20529;-72
2022/10/27 06:07:50;;;;;;;31.42;13.30;;;17.40;96.70;;;;;;4931267;29;20035;-72
2022/10/27 06:10:18;;;;;;;34.13;12.45;;;17.30;96.70;;;;;;4937147;28;20035;-72
2022/10/27 06:12:46;;;;;;;34.92;13.82;;;17.30;96.70;;;;;;4964889;28;20054;-72
2022/10/27 06:15:15;;;;;;;32.30;13.90;;;17.20;96.70;;;;;;4951250;28;20038;-72
2022/10/27 06:17:43;;;;;;;29.30;13.60;;;17.20;96.70;;;;;;4929699;28;20426;-72
2022/10/27 06:20:11;;;;;;;25.55;12.15;;;17.10;96.70;;;;;;4926988;29;20044;-72
2022/10/27 06:22:39;;;;;;;20.85;10.32;;;17.10;96.70;;;;;;4942423;28;20043;-72
2022/10/27 06:25:07;;;;;;;23.10;10.55;;;17.10;96.70;;;;;;4936578;29;20616;-71
2022/10/27 06:27:35;;;;;;;18.33;10.52;;;17.00;96.70;;;;;;4944662;28;20047;-72
2022/10/27 06:30:03;;;;;;;22.20;10.18;;;17.00;96.70;;;;;;4938168;28;20079;-73
2022/10/27 06:32:36;;;;;;;18.90;9.38;;;17.00;96.70;;;;;;4961286;28;20126;-71
2022/10/27 06:35:08;;;;;;;19.58;8.68;;;17.00;96.70;;;;;;4928994;29;20098;-72
2022/10/27 06:37:38;;;;;;;11.60;7.75;;;17.00;96.70;;;;;;4926749;29;20052;-72
2022/10/27 06:40:07;;;;;;;12.75;7.47;;;17.00;96.70;;;;;;4926497;29;20406;-72
2022/10/27 06:42:35;;;;;;;11.30;7.72;;;17.00;96.70;;;;;;4928950;29;20127;-73
2022/10/27 06:45:22;;;;;;;12.55;8.10;;;17.10;96.70;;;;;;4923625;29;20044;-72
2022/10/27 06:47:57;;;;;;;9.73;7.80;;;17.10;96.70;;;;;;4927292;29;20123;-72
2022/10/27 06:50:25;;;;;;;13.93;8.13;;;17.20;96.70;;;;;;4928048;28;20625;-72
2022/10/27 06:52:54;;;;;;;10.70;7.18;;;17.20;96.70;;;;;;4929686;29;20059;-72
2022/10/27 06:55:22;;;;;;;11.75;8.07;;;17.20;96.70;;;;;;4944470;28;20047;-72
2022/10/27 06:57:50;;;;;;;12.02;7.28;;;17.30;96.70;;;;;;4932181;28;20044;-73
2022/10/27 07:00:19;;;;;;;10.13;6.60;;;17.30;96.70;;;;;;4926402;29;20560;-73
2022/10/27 07:02:46;;;;;;;11.30;7.68;;;17.20;96.70;;;;;;4926204;29;20043;-72
2022/10/27 07:05:16;;;;;;;16.98;10.10;;;17.20;96.70;;;;;;4932691;29;20051;-73
2022/10/27 07:07:46;;;;;;;16.73;11.75;;;17.20;96.70;;;;;;4924901;29;20143;-72
2022/10/27 07:10:14;;;;;;;24.35;14.60;;;17.20;96.70;;;;;;4922084;29;20490;-72
2022/10/27 07:12:51;;;;;;;28.95;15.93;;;17.10;96.70;;;;;;4926597;29;20051;-73
2022/10/27 07:15:19;;;;;;;30.10;17.48;;;17.10;96.70;;;;;;4926941;29;20107;-72
2022/10/27 07:17:47;;;;;;;36.00;21.60;;;17.10;96.70;;;;;;4931382;29;20624;-72
2022/10/27 07:20:16;;;;;;;28.00;17.10;;;17.10;96.70;;;;;;4917692;29;20150;-72
2022/10/27 07:22:44;;;;;;;26.45;17.98;;;17.10;96.70;;;;;;4926605;29;20040;-71
2022/10/27 07:25:12;;;;;;;25.25;15.68;;;17.20;96.70;;;;;;4927036;29;20056;-71
2022/10/27 07:27:40;;;;;;;21.90;14.48;;;17.30;96.70;;;;;;4928450;29;20054;-72
2022/10/27 07:30:09;;;;;;;21.38;13.77;;;17.30;96.70;;;;;;4941233;29;20051;-72
2022/10/27 07:32:37;;;;;;;21.25;13.90;;;17.40;96.70;;;;;;4934137;29;20058;-72
2022/10/27 07:35:09;;;;;;;12.32;8.93;;;17.40;96.70;;;;;;4936285;29;20035;-72
2022/10/27 07:37:43;;;;;;;14.00;9.88;;;17.40;96.70;;;;;;4935205;29;20062;-72
2022/10/27 07:40:12;;;;;;;14.15;10.75;;;17.60;96.70;;;;;;4942763;28;20059;-72
2022/10/27 07:42:44;;;;;;;15.15;9.90;;;17.60;96.70;;;;;;4963633;28;20568;-72
2022/10/27 07:45:12;;;;;;;9.60;8.45;;;17.70;96.70;;;;;;4941238;28;20039;-72
2022/10/27 07:47:43;;;;;;;11.73;8.23;;;17.70;96.70;;;;;;4946802;28;20063;-73
2022/10/27 07:50:11;;;;;;;11.27;8.15;;;17.80;96.70;;;;;;4949665;28;20047;-73
2022/10/27 07:52:45;;;;;;;14.25;8.63;;;17.80;96.70;;;;;;4925444;29;20149;-73
2022/10/27 07:55:15;;;;;;;13.25;9.10;;;17.80;96.70;;;;;;4948485;28;20051;-73
2022/10/27 07:57:43;;;;;;;13.38;9.55;;;17.80;96.70;;;;;;4935236;28;20074;-73
2022/10/27 08:00:12;;;;;;;14.52;9.57;;;17.90;96.70;;;;;;4936602;28;20146;-73
2022/10/27 08:02:40;;;;;;;14.48;9.00;;;17.90;96.70;;;;;;4968055;28;20491;-72
2022/10/27 08:05:09;;;;;;;15.55;10.05;;;17.90;96.70;;;;;;4941583;29;20150;-72
2022/10/27 08:07:37;;;;;;;22.88;11.35;;;17.90;96.70;;;;;;4960359;28;20049;-71
2022/10/27 08:10:08;;;;;;;17.77;11.45;;;17.90;96.70;;;;;;4948721;28;20047;-71
2022/10/27 08:12:40;;;;;;;16.63;11.68;;;17.90;96.70;;;;;;4932507;28;20602;-72
2022/10/27 08:15:09;;;;;;;15.23;11.30;;;17.90;96.70;;;;;;4956085;28;20047;-72
2022/10/27 08:17:37;;;;;;;18.00;11.55;;;18.10;96.70;;;;;;4948549;28;20051;-72
2022/10/27 08:20:06;;;;;;;14.00;10.20;;;18.20;96.70;;;;;;4933891;28;20667;-72
2022/10/27 08:22:34;;;;;;;16.48;10.40;;;18.30;96.70;;;;;;4916037;28;20040;-72
2022/10/27 08:25:02;;;;;;;18.58;11.45;;;18.30;96.70;;;;;;4933463;28;20054;-71
2022/10/27 08:27:37;;;;;;;16.50;11.38;;;18.30;96.70;;;;;;4945428;28;20425;-72
2022/10/27 08:30:05;;;;;;;13.90;10.38;;;18.40;96.70;;;;;;4936654;29;20049;-72
2022/10/27 08:32:33;;;;;;;11.35;8.80;;;18.50;96.70;;;;;;4943807;28;20940;-72
2022/10/27 08:35:01;;;;;;;13.93;9.40;;;18.50;96.70;;;;;;4956634;28;20048;-73
2022/10/27 08:37:28;;;;;;;15.30;10.30;;;18.50;96.70;;;;;;4942316;28;21485;-73
2022/10/27 08:39:56;;;;;;;15.93;10.35;;;18.60;96.70;;;;;;4960919;28;20576;-72
2022/10/27 08:42:40;;;;;;;15.50;10.15;;;18.70;96.70;;;;;;4945308;29;20043;-72
2022/10/27 08:45:13;;;;;;;14.40;10.50;;;18.80;96.70;;;;;;4931082;28;20501;-72
2022/10/27 08:47:42;;;;;;;16.30;10.80;;;18.90;96.70;;;;;;4931110;28;20051;-73
2022/10/27 08:50:13;;;;;;;18.75;11.57;;;19.00;96.70;;;;;;4949303;28;20591;-72
2022/10/27 08:52:45;;;;;;;22.52;13.32;;;19.10;96.70;;;;;;4947616;28;20646;-72
2022/10/27 08:55:21;;;;;;;20.75;13.27;;;19.10;96.70;;;;;;4932092;29;20058;-72
2022/10/27 08:57:58;;;;;;;21.65;13.65;;;19.20;96.70;;;;;;4931003;28;20057;-73
2022/10/27 09:00:26;;;;;;;;;;;19.30;96.70;;;;;;4932467;29;20058;-72
2022/10/27 09:03:18;;;;;;;21.88;11.05;;;19.30;96.70;;;;;;4931306;29;19926;-73
2022/10/27 09:05:58;;;;;;;17.60;10.65;;;19.40;96.70;;;;;;4949391;28;20051;-72
2022/10/27 09:08:34;;;;;;;20.45;11.32;;;19.50;96.70;;;;;;4932671;29;20133;-73
2022/10/27 09:11:30;;;;;;;16.20;10.80;;;19.60;96.70;;;;;;4948615;28;20049;-72
2022/10/27 09:14:13;;;;;;;16.77;9.98;;;19.70;96.70;;;;;;4952607;28;20354;-73
2022/10/27 09:16:46;;;;;;;18.05;9.15;;;19.90;96.70;;;;;;4948175;28;20481;-72
2022/10/27 09:19:25;;;;;;;14.00;9.75;;;20.00;96.70;;;;;;4926656;28;20039;-73
2022/10/27 09:21:53;;;;;;;17.98;10.77;;;20.00;96.70;;;;;;4930256;29;20807;-72
2022/10/27 09:24:26;;;;;;;14.07;9.77;;;20.20;96.70;;;;;;4915124;28;20450;-72
2022/10/27 09:26:57;;;;;;;19.02;11.00;;;20.20;96.70;;;;;;4947246;28;20130;-72
2022/10/27 09:29:28;;;;;;;17.42;10.35;;;20.30;96.70;;;;;;4930974;29;20044;-73
2022/10/27 09:31:59;;;;;;;22.00;10.80;;;20.40;96.70;;;;;;4930010;28;20058;-73
2022/10/27 09:34:31;;;;;;;16.55;8.85;;;20.50;96.70;;;;;;4911920;28;20054;-73
2022/10/27 09:36:59;;;;;;;15.02;8.50;;;20.60;96.70;;;;;;4939620;28;20507;-73
2022/10/27 09:39:27;;;;;;;18.00;10.57;;;20.70;96.70;;;;;;4930860;29;20073;-73
2022/10/27 09:41:56;;;;;;;16.50;10.02;;;20.80;96.70;;;;;;4946965;28;20070;-73
2022/10/27 09:44:25;;;;;;;15.85;9.48;;;20.90;96.70;;;;;;4946688;28;20035;-72
2022/10/27 09:46:54;;;;;;;17.40;8.77;;;21.00;96.70;;;;;;4915351;28;20043;-72
2022/10/27 09:49:30;;;;;;;18.80;8.20;;;21.20;96.70;;;;;;4929661;29;20505;-72
2022/10/27 09:52:02;;;;;;;17.13;8.43;;;21.20;96.70;;;;;;4941945;28;20039;-72
2022/10/27 09:54:32;;;;;;;15.98;8.20;;;21.30;96.70;;;;;;4945865;28;20039;-72
2022/10/27 09:57:08;;;;;;;14.70;7.80;;;21.40;96.70;;;;;;4951340;28;20044;-72
2022/10/27 09:59:39;;;;;;;16.33;7.60;;;21.50;96.70;;;;;;4957384;28;20101;-72
2022/10/27 10:02:23;;;;;;;17.38;6.65;;;21.50;96.70;;;;;;4960073;28;20448;-72
2022/10/27 10:04:52;;;;;;;17.55;7.25;;;21.60;96.70;;;;;;4940532;28;20043;-73
2022/10/27 10:07:32;;;;;;;18.63;6.65;;;21.70;96.70;;;;;;4942340;28;20050;-72
2022/10/27 10:10:16;;;;;;;14.07;6.20;;;21.70;96.70;;;;;;4953787;28;20054;-72
2022/10/27 10:12:45;;;;;;;14.32;6.07;;;21.80;96.70;;;;;;4932552;28;20461;-73
2022/10/27 10:15:37;;;;;;;12.32;5.90;;;22.00;96.70;;;;;;4967309;28;20050;-72
2022/10/27 10:18:22;;;;;;;15.35;5.82;;;22.10;96.70;;;;;;4892783;29;20121;-73
2022/10/27 10:20:56;;;;;;;13.75;5.72;;;22.10;96.70;;;;;;4871318;29;20495;-73
2022/10/27 10:23:26;;;;;;;18.20;6.43;;;22.20;96.70;;;;;;4871013;29;20068;-73
2022/10/27 10:25:57;;;;;;;17.92;6.43;;;22.20;96.70;;;;;;4870605;29;20052;-72
2022/10/27 10:28:32;;;;;;;17.63;6.47;;;22.30;96.70;;;;;;4885560;29;20115;-73
2022/10/27 10:31:05;;;;;;;11.13;4.77;;;22.30;96.70;;;;;;4881899;29;20565;-73
2022/10/27 10:33:36;;;;;;;17.30;6.30;;;22.50;96.70;;;;;;4883399;29;20052;-73
2022/10/27 10:36:18;;;;;;;16.40;6.40;;;22.50;96.70;;;;;;4879810;29;20131;-73
2022/10/27 10:38:52;;;;;;;16.52;6.93;;;22.50;96.70;;;;;;4891137;29;20554;-73
2022/10/27 10:41:20;;;;;;;22.48;7.25;;;22.70;96.70;;;;;;4901848;29;20736;-72
2022/10/27 10:44:08;;;;;;;14.23;6.65;;;22.70;96.70;;;;;;4877426;29;20048;-73
2022/10/27 10:46:40;;;;;;;12.40;6.38;;;22.70;96.70;;;;;;4888411;29;20052;-73
2022/10/27 10:49:18;;;;;;;14.77;6.50;;;22.80;96.70;;;;;;4886665;29;20552;-73
2022/10/27 10:51:50;;;;;;;20.60;6.68;;;22.90;96.70;;;;;;4870100;29;20053;-72
2022/10/27 10:54:24;;;;;;;16.27;7.15;;;22.90;96.70;;;;;;4885538;29;20136;-72
2022/10/27 10:56:53;;;;;;;24.15;7.95;;;23.00;96.70;;;;;;4935968;28;20039;-73
2022/10/27 10:59:35;;;;;;;19.25;7.20;;;23.00;96.70;;;;;;4929819;28;20566;-73
2022/10/27 11:02:21;;;;;;;23.83;7.30;;;23.00;96.70;;;;;;4948376;28;20078;-72
2022/10/27 11:04:50;;;;;;;20.13;7.30;;;23.10;96.70;;;;;;4943430;28;20047;-72
2022/10/27 11:07:23;;;;;;;20.95;7.32;;;23.20;96.70;;;;;;4950369;28;20043;-72
2022/10/27 11:09:57;;;;;;;14.93;5.80;;;23.30;96.70;;;;;;4949834;28;20556;-72
2022/10/27 11:12:31;;;;;;;17.63;6.82;;;23.40;96.70;;;;;;4935010;29;20115;-72
2022/10/27 11:15:04;;;;;;;23.60;6.90;;;23.50;96.70;;;;;;4949866;28;20105;-73
2022/10/27 11:17:36;;;;;;;21.73;6.90;;;23.60;96.70;;;;;;4928887;28;20062;-72
2022/10/27 11:20:12;;;;;;;14.55;6.25;;;23.60;96.70;;;;;;4950951;28;20042;-72
2022/10/27 11:22:42;;;;;;;21.45;6.63;;;23.60;96.70;;;;;;4935627;28;20465;-72
2022/10/27 11:25:16;;;;;;;18.08;6.45;;;23.70;96.70;;;;;;4932173;28;20046;-72
2022/10/27 11:27:59;;;;;;;15.75;6.55;;;23.90;96.70;;;;;;4952290;28;20130;-72
2022/10/27 11:30:28;;;;;;;11.80;6.38;;;23.90;96.70;;;;;;4938615;28;20057;-72
2022/10/27 11:33:08;;;;;;;16.52;6.60;;;24.00;96.70;;;;;;4959299;28;20049;-73
2022/10/27 11:35:45;;;;;;;16.58;6.03;;;24.00;96.70;;;;;;4943416;28;20047;-73
2022/10/27 11:38:15;;;;;;;;;;;24.10;96.70;;;;;;4948214;28;20070;-72
2022/10/27 11:40:51;;;;;;;16.58;6.53;;;24.20;96.70;;;;;;4937649;29;19926;-72
2022/10/27 11:43:26;;;;;;;23.50;6.03;;;24.30;96.70;;;;;;4925509;29;20109;-72
2022/10/27 11:46:03;;;;;;;20.92;7.22;;;24.40;96.70;;;;;;4924776;29;20147;-72
2022/10/27 11:48:38;;;;;;;18.88;7.32;;;24.50;96.70;;;;;;4927870;29;20047;-72
2022/10/27 11:51:15;;;;;;;16.83;6.18;;;24.50;96.70;;;;;;4930792;29;20123;-72
2022/10/27 11:53:44;;;;;;;22.63;6.68;;;24.70;96.70;;;;;;4925821;29;20709;-72
2022/10/27 11:56:37;;;;;;;19.58;6.57;;;24.90;96.70;;;;;;4925624;29;20857;-72
2022/10/27 11:59:19;;;;;;;20.80;5.90;;;25.00;96.70;;;;;;4919565;29;20462;-72
2022/10/27 12:02:04;;;;;;;20.48;6.32;;;25.20;96.70;;;;;;4925862;29;20776;-72
2022/10/27 12:04:46;;;;;;;18.08;6.30;;;25.30;96.70;;;;;;4924333;29;20056;-72
2022/10/27 12:07:32;;;;;;;18.88;6.38;;;25.20;96.70;;;;;;4923762;29;20079;-72
2022/10/27 12:10:18;;;;;;;16.83;5.80;;;25.20;96.70;;;;;;4934813;29;20075;-72
2022/10/27 12:12:49;;;;;;;16.85;6.80;;;25.30;96.70;;;;;;4943561;29;20118;-73
2022/10/27 12:15:26;;;;;;;22.55;6.68;;;25.40;96.70;;;;;;4926712;29;20051;-73
2022/10/27 12:18:01;;;;;;;22.48;10.32;;;25.40;96.70;;;;;;4910696;29;20059;-73
2022/10/27 12:20:43;;;;;;;17.17;6.57;;;25.60;96.70;;;;;;4931329;29;20058;-73
2022/10/27 12:23:16;;;;;;;21.30;6.78;;;25.70;96.70;;;;;;4934251;29;20058;-73
2022/10/27 12:25:53;;;;;;;19.63;6.80;;;25.80;96.70;;;;;;4924248;29;20709;-72
2022/10/27 12:28:25;;;;;;;23.65;7.03;;;25.80;96.70;;;;;;4920263;29;20280;-73
2022/10/27 12:30:59;;;;;;;17.33;6.10;;;25.70;96.70;;;;;;4937656;29;20121;-73
2022/10/27 12:33:33;;;;;;;22.05;6.28;;;25.70;96.70;;;;;;4937707;28;20119;-72
2022/10/27 12:36:09;;;;;;;18.58;6.80;;;25.70;96.70;;;;;;4945143;29;20051;-73
2022/10/27 12:38:44;;;;;;;16.38;5.85;;;25.70;96.70;;;;;;4931561;28;20075;-73
2022/10/27 12:41:24;;;;;;;18.95;7.13;;;25.90;96.70;;;;;;4946989;28;20055;-73
2022/10/27 12:44:01;;;;;;;23.73;6.45;;;26.00;96.70;;;;;;4934095;28;20069;-72
2022/10/27 12:46:52;;;;;;;17.15;6.38;;;26.20;96.70;;;;;;4959549;28;20083;-73
2022/10/27 12:49:26;;;;;;;16.95;5.80;;;26.30;96.70;;;;;;4958001;28;20039;-72
2022/10/27 12:52:04;;;;;;;19.92;5.68;;;26.30;96.70;;;;;;4945892;28;20085;-73
2022/10/27 12:55:06;;;;;;;13.73;6.50;;;26.30;96.70;;;;;;4959624;28;20074;-73
2022/10/27 12:57:49;;;;;;;15.95;5.88;;;26.40;96.70;;;;;;4941486;28;20050;-72
2022/10/27 13:00:20;;;;;;;17.02;6.50;;;26.50;96.70;;;;;;4950074;28;20043;-73